Time;durP1;ratioP1;P1;durP2;ratioP2;P2;SDS_P1;SDS_P2;PMS_P1;PMS_P2;Temp;Humidity;BMP_temperature;BMP_pressure;BME280_temperature;BME280_humidity;BME280_pressure;Samples;Min_cycle;Max_cycle;Signal;HPM_P1;HPM_P2
2022/10/12 00:00:19;;;;;;;;;6.00;3.00;;;;;21.05;41.16;101837.84;5057990;28;46479;-48
2022/10/12 00:02:44;;;;;;;;;2.00;2.00;;;;;21.03;41.23;101830.00;5039839;28;45559;-47
2022/10/12 00:05:09;;;;;;;;;3.00;3.00;;;;;21.05;41.25;101835.19;5058427;28;45407;-51
2022/10/12 00:07:35;;;;;;;;;3.00;3.00;;;;;21.05;41.17;101832.56;5057441;28;45529;-49
2022/10/12 00:10:01;;;;;;;;;2.00;2.00;;;;;21.03;41.36;101831.75;5057694;28;45505;-47
2022/10/12 00:12:26;;;;;;;;;5.75;3.50;;;;;21.02;40.89;101833.56;5059955;28;45359;-46
2022/10/12 00:14:52;;;;;;;;;3.50;3.00;;;;;21.04;41.24;101834.34;5064058;28;45380;-46
2022/10/12 00:17:17;;;;;;;;;7.00;3.00;;;;;21.04;40.94;101836.13;5060483;28;45283;-46
2022/10/12 00:19:42;;;;;;;;;3.00;3.00;;;;;21.04;41.28;101841.38;5058977;28;46848;-47
2022/10/12 00:22:08;;;;;;;;;3.00;3.00;;;;;21.03;41.31;101834.41;5057743;28;45325;-49
2022/10/12 00:24:33;;;;;;;;;4.33;2.00;;;;;21.03;41.18;101835.28;5057869;28;55027;-49
2022/10/12 00:26:58;;;;;;;;;3.33;2.00;;;;;21.05;40.97;101837.84;5057502;28;47571;-46
2022/10/12 00:29:24;;;;;;;;;3.00;2.50;;;;;21.04;41.51;101841.38;5057751;28;55599;-47
2022/10/12 00:31:49;;;;;;;;;3.00;3.00;;;;;21.03;41.12;101832.63;5057580;28;45197;-46
2022/10/12 00:34:14;;;;;;;;;5.00;3.67;;;;;21.03;41.09;101844.94;5057295;28;52424;-47
2022/10/12 00:36:40;;;;;;;;;3.25;3.25;;;;;21.02;41.62;101833.56;5058670;28;45327;-51
2022/10/12 00:39:08;;;;;;;;;3.75;3.00;;;;;21.03;41.18;101834.41;5056495;28;45428;-52
2022/10/12 00:41:38;;;;;;;;;4.50;4.50;;;;;21.02;41.17;101838.81;5058548;28;45446;-48
2022/10/12 00:44:34;;;;;;;;;4.00;3.00;;;;;21.03;41.29;101837.91;5063539;28;45719;-48
2022/10/12 00:47:06;;;;;;;;;3.00;3.00;;;;;21.03;41.46;101837.03;5062449;28;45340;-46
2022/10/12 00:49:33;;;;;;;;;3.25;3.00;;;;;21.01;41.36;101831.84;5060483;28;45586;-49
2022/10/12 00:52:04;;;;;;;;;4.25;3.25;;;;;21.02;41.13;101833.56;5057210;28;45350;-49
2022/10/12 00:54:33;;;;;;;;;3.25;3.00;;;;;21.00;41.10;101833.59;5057625;28;45478;-53
2022/10/12 00:57:02;;;;;;;;;5.00;3.00;;;;;21.01;41.38;101837.94;5056945;28;45479;-53
2022/10/12 00:59:32;;;;;;;;;3.00;3.00;;;;;21.00;41.53;101835.41;5056270;28;46747;-52
2022/10/12 01:01:58;;;;;;;;;4.00;2.50;;;;;21.00;41.30;101833.59;5056801;28;45245;-50
2022/10/12 01:04:24;;;;;;;;;7.00;4.00;;;;;21.00;41.30;101833.59;5057105;28;45433;-52
2022/10/12 01:06:50;;;;;;;;;3.50;3.50;;;;;21.00;41.25;101830.97;5057961;28;45536;-49
2022/10/12 01:09:16;;;;;;;;;4.00;2.25;;;;;21.00;41.24;101827.47;5062733;28;47156;-50
2022/10/12 01:11:41;;;;;;;;;4.00;3.00;;;;;20.99;41.35;101817.88;5062389;28;45331;-49
2022/10/12 01:14:10;;;;;;;;;3.50;3.00;;;;;21.00;41.18;101823.06;5058484;28;45404;-47
2022/10/12 01:16:43;;;;;;;;;3.50;3.50;;;;;20.99;41.51;101820.50;5059228;28;45507;-46
2022/10/12 01:19:27;;;;;;;;;4.25;3.00;;;;;20.99;41.13;101824.00;5058066;28;47184;-45
2022/10/12 01:22:01;;;;;;;;;4.50;3.00;;;;;20.99;41.30;101815.22;5057632;28;45480;-47
2022/10/12 01:24:50;;;;;;;;;5.75;3.00;;;;;20.99;41.30;101821.38;5064173;28;45391;-46
2022/10/12 01:27:36;;;;;;;;;4.00;4.00;;;;;20.99;41.30;101821.38;5051000;28;45748;-46
2022/10/12 01:30:21;;;;;;;;;2.75;2.75;;;;;21.00;41.39;101822.22;5060070;28;45458;-47
2022/10/12 01:32:49;;;;;;;;;3.00;3.00;;;;;20.99;41.64;101821.38;5056383;28;45418;-48
2022/10/12 01:35:32;;;;;;;;;4.00;2.75;;;;;20.98;41.38;101819.66;5058287;28;45406;-46
2022/10/12 01:38:25;;;;;;;;;3.75;3.75;;;;;20.98;41.60;101809.13;5062558;28;45365;-46
2022/10/12 01:40:58;;;;;;;;;3.00;3.00;;;;;20.98;41.17;101817.03;5057351;28;46494;-47
2022/10/12 01:43:35;;;;;;;;;4.75;3.50;;;;;20.99;41.20;101817.88;5057328;28;46085;-45
2022/10/12 01:46:11;;;;;;;;;3.00;3.00;;;;;20.97;41.60;101815.31;5057246;28;45396;-44
2022/10/12 01:48:36;;;;;;;;;5.75;3.00;;;;;20.97;41.32;101810.03;5056523;28;45609;-46
2022/10/12 01:51:02;;;;;;;;;3.25;3.25;;;;;20.97;41.53;101809.16;5056687;28;46247;-47
2022/10/12 01:54:07;;;;;;;;;4.75;3.00;;;;;20.98;41.51;101811.75;5056814;28;45243;-45
2022/10/12 01:56:51;;;;;;;;;5.50;3.75;;;;;20.98;41.67;101810.88;5054171;28;45578;-45
2022/10/12 01:59:23;;;;;;;;;4.00;2.25;;;;;20.97;41.14;101815.31;5056212;28;45355;-45
2022/10/12 02:02:03;;;;;;;;;2.75;2.75;;;;;20.97;41.39;101804.75;5058894;28;45276;-50
2022/10/12 02:04:38;;;;;;;;;2.75;2.75;;;;;20.97;41.31;101819.69;5074784;28;45138;-46
2022/10/12 02:07:10;;;;;;;;;5.50;2.00;;;;;20.97;41.39;101815.31;5068018;28;45167;-49
2022/10/12 02:09:37;;;;;;;;;4.50;3.00;;;;;20.95;41.55;101806.59;5064605;28;45410;-49
2022/10/12 02:12:11;;;;;;;;;3.50;2.75;;;;;20.96;41.65;101805.69;5069570;28;45356;-49
2022/10/12 02:14:48;;;;;;;;;3.75;2.50;;;;;20.96;41.52;101802.16;5060891;28;45855;-46
2022/10/12 02:17:17;;;;;;;;;3.25;3.25;;;;;20.95;41.42;101806.59;5059833;28;45218;-46
2022/10/12 02:19:48;;;;;;;;;3.00;3.00;;;;;20.95;41.70;101801.31;5075506;28;45312;-49
2022/10/12 02:22:16;;;;;;;;;6.25;3.00;;;;;20.97;41.49;101806.53;5080032;27;45489;-50
2022/10/12 02:24:46;;;;;;;;;7.00;4.25;;;;;20.96;41.38;101803.03;5075819;28;45652;-51
2022/10/12 02:27:14;;;;;;;;;5.00;3.25;;;;;20.96;41.43;101796.91;5062515;28;45367;-48
2022/10/12 02:29:43;;;;;;;;;6.75;5.25;;;;;20.96;41.46;101786.34;5057238;28;45605;-46
2022/10/12 02:32:29;;;;;;;;;2.50;2.50;;;;;20.96;41.41;101791.63;5062134;28;46377;-46
2022/10/12 02:35:16;;;;;;;;;3.00;3.00;;;;;20.96;41.49;101783.72;5058905;28;45920;-45
2022/10/12 02:38:08;;;;;;;;;3.25;3.25;;;;;20.94;41.51;101783.78;5038080;28;45333;-46
2022/10/12 02:40:38;;;;;;;;;4.00;4.00;;;;;20.95;41.79;101782.00;5050688;28;46304;-46
2022/10/12 02:43:22;;;;;;;;;3.75;3.00;;;;;20.94;41.36;101773.25;5055094;28;46534;-46
2022/10/12 02:45:49;;;;;;;;;1.00;1.00;;;;;20.94;41.64;101773.25;5058784;28;45379;-45
2022/10/12 02:48:20;;;;;;;;;3.00;3.00;;;;;20.94;41.61;101773.25;5040609;28;45407;-46
2022/10/12 02:50:48;;;;;;;;;4.00;3.00;;;;;20.94;41.79;101773.25;5058510;28;45410;-45
2022/10/12 02:53:15;;;;;;;;;3.25;3.00;;;;;20.94;41.60;101770.63;5058318;28;45415;-48
2022/10/12 02:55:52;;;;;;;;;3.00;3.00;;;;;20.96;41.82;101770.53;5058389;28;45282;-46
2022/10/12 02:58:18;;;;;;;;;4.00;3.00;;;;;20.94;41.35;101773.25;5060112;28;45343;-45
2022/10/12 03:00:44;;;;;;;;;3.25;2.00;;;;;20.94;41.49;101773.25;5065988;28;45439;-45
2022/10/12 03:03:09;;;;;;;;;6.75;4.00;;;;;20.93;41.36;101761.00;5063169;28;45518;-47
2022/10/12 03:05:34;;;;;;;;;1.00;0.00;;;;;20.93;41.23;101776.81;5058673;28;45492;-53
2022/10/12 03:08:00;;;;;;;;;3.00;3.00;;;;;20.93;41.58;101766.28;5058128;28;45479;-49
2022/10/12 03:10:25;;;;;;;;;3.00;3.00;;;;;20.94;41.77;101767.16;5058653;28;45315;-46
2022/10/12 03:12:50;;;;;;;;;4.00;3.00;;;;;20.94;41.46;101767.97;5057740;28;45264;-48
2022/10/12 03:15:16;;;;;;;;;5.00;3.00;;;;;20.93;41.47;101768.91;5058192;28;45373;-45
2022/10/12 03:17:41;;;;;;;;;4.75;4.00;;;;;20.94;41.73;101767.97;5058359;28;45818;-45
2022/10/12 03:20:09;;;;;;;;;5.50;4.00;;;;;20.93;41.71;101761.00;5058344;28;45375;-46
2022/10/12 03:22:35;;;;;;;;;3.00;3.00;;;;;20.91;41.85;101754.94;5059962;28;46041;-53
2022/10/12 03:25:00;;;;;;;;;3.00;3.00;;;;;20.93;41.76;101760.16;5060481;28;45305;-52
2022/10/12 03:27:26;;;;;;;;;3.25;3.00;;;;;20.92;41.51;101764.56;5061504;28;45434;-51
2022/10/12 03:29:51;;;;;;;;;3.50;3.00;;;;;20.93;42.00;101765.44;5025888;28;45281;-48
2022/10/12 03:32:17;;;;;;;;;5.00;5.00;;;;;20.92;41.58;101767.19;5057879;28;45508;-49
2022/10/12 03:34:42;;;;;;;;;3.00;3.00;;;;;20.93;41.51;101761.00;5058663;28;45446;-53
2022/10/12 03:37:08;;;;;;;;;4.50;3.00;;;;;20.93;41.45;101761.00;5057672;28;45260;-49
2022/10/12 03:39:33;;;;;;;;;3.50;3.00;;;;;20.93;42.07;101755.72;5057901;28;45862;-49
2022/10/12 03:41:58;;;;;;;;;5.00;3.50;;;;;20.92;41.71;101755.81;5057179;28;47277;-55
2022/10/12 03:44:24;;;;;;;;;4.00;3.50;;;;;20.92;41.61;101764.56;5057309;28;45372;-49
2022/10/12 03:46:49;;;;;;;;;5.00;3.00;;;;;20.91;41.39;101768.09;5057185;28;45469;-54
2022/10/12 03:49:15;;;;;;;;;4.00;4.00;;;;;20.92;41.63;101761.91;5057688;28;45587;-55
2022/10/12 03:51:40;;;;;;;;;6.00;5.00;;;;;20.91;41.72;101762.84;5057924;28;45421;-52
2022/10/12 03:54:05;;;;;;;;;3.00;3.00;;;;;20.93;41.60;101763.63;5041210;28;45309;-49
2022/10/12 03:56:31;;;;;;;;;7.75;4.00;;;;;20.89;41.93;101758.56;5061751;28;45328;-54
2022/10/12 03:58:56;;;;;;;;;4.25;3.00;;;;;20.89;41.92;101764.69;5057397;28;45312;-51
2022/10/12 04:01:21;;;;;;;;;4.50;3.00;;;;;20.92;41.67;101774.25;5056993;28;46008;-51
2022/10/12 04:03:47;;;;;;;;;5.00;3.25;;;;;20.91;41.99;101767.25;5057289;28;45300;-52
2022/10/12 04:06:12;;;;;;;;;2.75;2.25;;;;;20.91;41.58;101762.84;5057588;28;45446;-54
2022/10/12 04:08:37;;;;;;;;;3.00;3.00;;;;;20.90;41.63;101766.38;5057556;28;45665;-51
2022/10/12 04:11:03;;;;;;;;;3.00;3.00;;;;;20.90;41.33;101758.47;5057051;28;47235;-45
2022/10/12 04:13:28;;;;;;;;;5.00;3.75;;;;;20.91;41.55;101760.19;5057452;28;45347;-53
2022/10/12 04:15:54;;;;;;;;;2.75;2.75;;;;;20.91;41.90;101762.84;5039306;28;45328;-46
2022/10/12 04:18:19;;;;;;;;;2.25;2.25;;;;;20.89;41.58;101762.03;5057060;28;45565;-50
2022/10/12 04:20:49;;;;;;;;;6.00;3.25;;;;;20.89;41.45;101762.03;5057027;28;46465;-54
2022/10/12 04:23:14;;;;;;;;;3.00;3.00;;;;;20.91;41.45;101773.38;5043434;28;45932;-45
2022/10/12 04:25:40;;;;;;;;;2.25;2.25;;;;;20.88;41.84;101763.00;5061362;28;45379;-50
2022/10/12 04:28:05;;;;;;;;;4.75;2.75;;;;;20.90;41.58;101771.66;5058009;28;45409;-48
2022/10/12 04:30:31;;;;;;;;;6.50;4.00;;;;;20.89;41.59;101769.94;5057594;28;47423;-46
2022/10/12 04:32:57;;;;;;;;;3.50;3.50;;;;;20.89;41.57;101775.22;5058928;28;45360;-46
2022/10/12 04:35:22;;;;;;;;;3.00;2.25;;;;;20.89;41.47;101775.22;5057415;28;45326;-48
2022/10/12 04:37:48;;;;;;;;;7.00;4.00;;;;;20.88;41.84;101776.16;5057443;28;45415;-45
2022/10/12 04:40:13;;;;;;;;;3.25;3.00;;;;;20.91;41.93;101785.72;5057772;28;45442;-49
2022/10/12 04:42:39;;;;;;;;;4.00;2.00;;;;;20.90;41.93;101782.19;5072900;28;45252;-48
2022/10/12 04:45:04;;;;;;;;;4.00;4.00;;;;;20.88;41.90;101778.81;5062671;28;45178;-49
2022/10/12 04:47:30;;;;;;;;;3.00;3.00;;;;;20.87;41.77;101777.09;5057185;28;45223;-50
2022/10/12 04:49:55;;;;;;;;;3.00;3.00;;;;;20.88;41.63;101776.16;5056734;28;45494;-47
2022/10/12 04:52:20;;;;;;;;;4.00;2.25;;;;;20.91;41.55;101777.81;5059903;28;45344;-45
2022/10/12 04:54:46;;;;;;;;;3.00;3.00;;;;;20.89;41.44;101777.84;5063674;28;47655;-47
2022/10/12 04:57:11;;;;;;;;;3.50;3.50;;;;;20.89;41.46;101777.00;5041977;28;45317;-50
2022/10/12 04:59:36;;;;;;;;;3.00;3.00;;;;;20.88;41.45;101773.53;5056857;28;46298;-50
2022/10/12 05:02:02;;;;;;;;;3.00;3.00;;;;;20.88;42.13;101777.94;5056298;28;45314;-47
2022/10/12 05:04:27;;;;;;;;;4.50;2.00;;;;;20.87;41.75;101769.19;5056827;28;45520;-46
2022/10/12 05:06:53;;;;;;;;;4.50;3.00;;;;;20.88;41.75;101767.38;5055353;28;45883;-51
2022/10/12 05:09:18;;;;;;;;;2.00;2.00;;;;;20.88;41.72;101764.75;5056305;28;45438;-46
2022/10/12 05:11:44;;;;;;;;;5.50;3.00;;;;;20.87;42.19;101766.53;5056814;28;45335;-45
2022/10/12 05:14:10;;;;;;;;;4.00;2.75;;;;;20.87;41.46;101761.28;5056160;28;45416;-53
2022/10/12 05:16:35;;;;;;;;;4.00;3.25;;;;;20.88;41.94;101767.38;5023221;28;45728;-50
2022/10/12 05:19:01;;;;;;;;;3.00;3.00;;;;;20.88;41.85;101773.53;5063303;28;46338;-46
2022/10/12 05:21:26;;;;;;;;;3.00;3.00;;;;;20.87;41.60;101769.19;5057703;28;46079;-50
2022/10/12 05:23:51;;;;;;;;;3.00;3.00;;;;;20.86;41.68;101764.81;5056601;28;45463;-47
2022/10/12 05:26:17;;;;;;;;;4.50;3.25;;;;;20.87;41.70;101761.28;5056575;28;45578;-51
2022/10/12 05:28:43;;;;;;;;;2.75;2.75;;;;;20.86;41.86;101764.81;5056130;28;46278;-51
2022/10/12 05:31:08;;;;;;;;;5.00;5.00;;;;;20.85;41.79;101773.66;5055792;28;45291;-48
2022/10/12 05:33:34;;;;;;;;;5.00;3.75;;;;;20.84;41.88;101775.41;5056332;28;51273;-46
2022/10/12 05:35:59;;;;;;;;;4.75;3.50;;;;;20.84;41.71;101777.19;5056442;28;45535;-52
2022/10/12 05:38:24;;;;;;;;;5.00;5.00;;;;;20.82;41.81;101782.53;5055921;28;52406;-48
2022/10/12 05:40:49;;;;;;;;;5.00;4.00;;;;;20.82;41.76;101779.03;5056110;28;46489;-49
2022/10/12 05:43:15;;;;;;;;;4.25;4.25;;;;;20.83;41.80;101770.22;5056156;28;45315;-53
2022/10/12 05:45:42;;;;;;;;;4.75;4.75;;;;;20.82;41.61;101774.66;5061816;28;45333;-48
2022/10/12 05:48:07;;;;;;;;;4.50;3.00;;;;;20.82;41.55;101773.78;5041984;28;46942;-49
2022/10/12 05:50:32;;;;;;;;;7.00;6.00;;;;;20.81;41.58;101772.06;5056044;28;47965;-51
2022/10/12 05:52:57;;;;;;;;;6.00;5.00;;;;;20.80;41.63;101778.25;5056373;28;45368;-49
2022/10/12 05:55:23;;;;;;;;;5.25;5.25;;;;;20.76;41.46;101772.25;5057319;28;45477;-49
2022/10/12 05:57:48;;;;;;;;;9.75;7.00;;;;;20.75;41.36;101767.91;5057244;28;46286;-50
2022/10/12 06:00:14;;;;;;;;;5.50;4.25;;;;;20.71;41.59;101763.66;5057725;28;45391;-48
2022/10/12 06:02:40;;;;;;;;;6.75;6.75;;;;;20.69;41.00;101761.06;5067352;28;44812;-51
2022/10/12 06:05:05;;;;;;;;;8.25;6.50;;;;;20.66;41.08;101761.22;5058560;28;45346;-49
2022/10/12 06:07:31;;;;;;;;;6.25;5.00;;;;;20.66;41.36;101766.50;5057246;28;45270;-47
2022/10/12 06:09:56;;;;;;;;;7.00;7.00;;;;;20.65;41.44;101772.66;5056843;28;45422;-48
2022/10/12 06:12:22;;;;;;;;;6.00;5.00;;;;;20.64;40.86;101767.44;5043177;28;45515;-52
2022/10/12 06:14:48;;;;;;;;;8.00;7.00;;;;;20.62;41.32;101769.28;5064041;28;45517;-49
2022/10/12 06:17:13;;;;;;;;;7.00;6.00;;;;;20.60;40.98;101769.34;5058270;28;45158;-49
2022/10/12 06:19:38;;;;;;;;;7.00;6.25;;;;;20.59;41.13;101766.78;5063146;28;45322;-52
2022/10/12 06:22:04;;;;;;;;;6.50;5.00;;;;;20.59;40.58;101778.16;5062231;28;45434;-47
2022/10/12 06:24:29;;;;;;;;;5.25;5.25;;;;;20.59;40.91;101777.31;5066236;28;45325;-55
2022/10/12 06:26:55;;;;;;;;;9.00;6.25;;;;;20.58;41.09;101784.34;5065953;28;45343;-53
2022/10/12 06:29:22;;;;;;;;;7.00;6.00;;;;;20.57;41.09;101785.28;5065163;28;45410;-51
2022/10/12 06:31:51;;;;;;;;;7.25;6.25;;;;;20.57;40.55;101785.28;5062213;28;45430;-49
2022/10/12 06:34:16;;;;;;;;;9.50;8.00;;;;;20.56;41.07;101791.47;5063167;28;45839;-48
2022/10/12 06:36:42;;;;;;;;;9.00;7.00;;;;;20.55;41.13;101795.88;5067652;28;45522;-49
2022/10/12 06:39:08;;;;;;;;;9.50;7.75;;;;;20.55;41.17;101792.41;5054952;28;45389;-50
2022/10/12 06:41:34;;;;;;;;;7.25;7.00;;;;;20.54;40.41;101796.78;5071985;28;45343;-48
2022/10/12 06:43:59;;;;;;;;;8.50;7.00;;;;;20.55;40.80;101800.31;5066102;28;45229;-49
2022/10/12 06:46:24;;;;;;;;;10.00;7.25;;;;;20.54;40.63;101802.06;5066188;28;45272;-51
2022/10/12 06:48:50;;;;;;;;;7.50;6.25;;;;;20.52;40.93;101803.06;5068113;28;45315;-50
2022/10/12 06:51:15;;;;;;;;;9.25;7.25;;;;;20.55;40.60;101802.94;5072814;28;45558;-53
2022/10/12 06:53:40;;;;;;;;;8.00;8.00;;;;;20.55;40.73;101797.66;5075350;28;45170;-55
2022/10/12 06:56:08;;;;;;;;;9.00;7.50;;;;;20.57;40.23;101801.06;5076880;28;45117;-55
2022/10/12 06:58:34;;;;;;;;;9.00;8.75;;;;;20.58;40.96;101807.22;5076330;28;45337;-50
2022/10/12 07:01:04;;;;;;;;;8.25;6.75;;;;;20.59;40.76;101807.16;5077951;28;45292;-49
2022/10/12 07:03:29;;;;;;;;;6.00;4.75;;;;;20.59;40.29;101812.41;5077121;28;45157;-52
2022/10/12 07:05:54;;;;;;;;;7.00;7.00;;;;;20.61;40.57;101809.75;5075802;28;46424;-50
2022/10/12 07:08:20;;;;;;;;;9.00;9.00;;;;;20.61;40.37;101813.22;5070358;28;45247;-51
2022/10/12 07:10:45;;;;;;;;;12.25;8.75;;;;;20.61;40.80;101812.38;5069685;28;44697;-50
2022/10/12 07:13:10;;;;;;;;;11.00;8.00;;;;;20.61;40.27;101813.22;5067685;28;45656;-54
2022/10/12 07:15:36;;;;;;;;;8.75;7.00;;;;;20.60;40.30;101808.88;5065038;28;64302;-48
2022/10/12 07:18:01;;;;;;;;;8.50;8.50;;;;;20.62;40.12;101808.78;5062272;28;45272;-48
2022/10/12 07:20:26;;;;;;;;;8.75;8.00;;;;;20.62;40.63;101809.66;5063317;28;45344;-50
2022/10/12 07:22:52;;;;;;;;;10.75;8.00;;;;;20.64;40.18;101817.50;5051389;28;45694;-53
2022/10/12 07:25:18;;;;;;;;;8.25;6.00;;;;;20.63;40.75;101810.50;5060900;28;45801;-47
2022/10/12 07:27:47;;;;;;;;;11.00;8.00;;;;;20.63;40.50;101814.00;5059595;28;45446;-45
2022/10/12 07:30:12;;;;;;;;;8.50;7.25;;;;;20.64;40.24;101823.63;5060050;28;45339;-45
2022/10/12 07:32:38;;;;;;;;;9.25;8.00;;;;;20.65;40.36;101829.75;5042174;28;45445;-48
2022/10/12 07:35:03;;;;;;;;;11.00;9.50;;;;;20.63;40.37;101821.91;5066101;28;45923;-46
2022/10/12 07:37:29;;;;;;;;;9.75;9.25;;;;;20.63;40.57;101826.31;5074100;28;45800;-46
2022/10/12 07:39:56;;;;;;;;;11.00;10.00;;;;;20.62;40.49;101828.09;5044701;28;45393;-42
2022/10/12 07:42:22;;;;;;;;;12.25;10.00;;;;;20.64;40.52;101830.66;5060380;28;45588;-45
2022/10/12 07:44:47;;;;;;;;;11.00;9.00;;;;;20.63;40.71;101836.84;5059605;28;45379;-44
2022/10/12 07:47:15;;;;;;;;;13.25;9.00;;;;;20.61;40.19;101834.28;5059081;28;48850;-45
2022/10/12 07:49:40;;;;;;;;;12.25;9.75;;;;;20.60;40.32;101832.56;5059980;28;45557;-46
2022/10/12 07:52:05;;;;;;;;;9.00;9.00;;;;;20.60;40.75;101837.84;5070088;28;45412;-45
2022/10/12 07:54:31;;;;;;;;;17.75;10.75;;;;;20.59;40.34;101840.53;5062066;28;45535;-45
2022/10/12 07:56:56;;;;;;;;;10.00;7.25;;;;;20.58;40.35;101834.41;5039601;28;45290;-47
2022/10/12 07:59:22;;;;;;;;;11.00;9.75;;;;;20.57;40.48;101837.94;5057533;28;45604;-47
2022/10/12 08:01:47;;;;;;;;;11.00;10.25;;;;;20.55;40.62;101840.66;5057953;28;45299;-45
2022/10/12 08:04:12;;;;;;;;;12.00;11.50;;;;;20.55;40.46;101845.91;5060432;28;45526;-46
2022/10/12 08:06:42;;;;;;;;;16.50;13.00;;;;;20.55;40.54;101847.72;5059146;28;50010;-48
2022/10/12 08:09:07;;;;;;;;;10.50;9.50;;;;;20.55;40.70;101847.72;5057433;28;45219;-46
2022/10/12 08:11:38;;;;;;;;;14.25;12.00;;;;;20.54;40.55;101846.00;5057605;28;45509;-47
2022/10/12 08:14:03;;;;;;;;;12.75;9.75;;;;;20.52;40.41;101848.66;5056456;28;47044;-50
2022/10/12 08:16:28;;;;;;;;;11.75;10.00;;;;;20.51;40.12;101848.75;5057213;28;45288;-47
2022/10/12 08:18:54;;;;;;;;;12.50;11.00;;;;;20.51;40.66;101849.59;5038841;28;45502;-47
2022/10/12 08:21:19;;;;;;;;;15.25;13.50;;;;;20.49;40.65;101851.44;5057553;28;45371;-49
2022/10/12 08:23:45;;;;;;;;;11.50;11.50;;;;;20.49;40.13;101853.19;5058014;28;47085;-46
2022/10/12 08:26:20;;;;;;;;;14.00;12.75;;;;;20.50;40.07;101847.03;5039992;28;45718;-46
2022/10/12 08:28:46;;;;;;;;;16.00;10.25;;;;;20.48;40.32;101840.94;5056943;28;45160;-48
2022/10/12 08:31:16;;;;;;;;;12.50;10.00;;;;;20.51;40.49;101848.75;5058924;28;45272;-45
2022/10/12 08:33:42;;;;;;;;;12.50;10.75;;;;;20.50;40.63;101847.91;5044827;28;47418;-45
2022/10/12 10:02:49;;;;;;;;;16.50;14.50;;;;;20.59;41.03;101830.00;5628681;22;46759;-58
2022/10/12 10:05:28;;;;;;;;;19.00;15.75;;;;;20.61;40.97;101834.28;5038567;28;45740;-57
2022/10/12 10:08:20;;;;;;;;;13.00;12.75;;;;;20.61;40.68;101822.91;5038220;28;47387;-57
2022/10/12 10:10:50;;;;;;;;;15.50;12.50;;;;;20.63;41.00;101818.41;5032942;28;45426;-58
2022/10/12 10:13:16;;;;;;;;;17.50;12.50;;;;;20.63;40.80;101819.28;5037314;28;45482;-58
2022/10/12 10:15:46;;;;;;;;;13.00;11.50;;;;;20.65;41.06;101808.69;5038465;28;45381;-58
2022/10/12 10:18:26;;;;;;;;;16.75;13.50;;;;;20.66;41.09;101807.75;5037709;28;46023;-62
2022/10/12 10:20:55;;;;;;;;;14.75;12.00;;;;;20.66;41.17;101811.25;5038821;28;45345;-61
2022/10/12 10:23:43;;;;;;;;;16.00;13.25;;;;;20.67;40.80;101812.94;5038882;28;45373;-59
2022/10/12 10:26:12;;;;;;;;;13.25;12.25;;;;;20.68;40.71;101817.31;5038657;28;46596;-60
2022/10/12 10:28:40;;;;;;;;;14.50;13.75;;;;;20.68;41.10;101813.81;5037244;28;45609;-62
2022/10/12 10:31:16;;;;;;;;;18.25;12.00;;;;;20.69;40.83;101810.28;5038378;28;45899;-63
2022/10/12 10:33:42;;;;;;;;;14.75;13.75;;;;;20.69;41.03;101808.47;5039160;28;45412;-62
2022/10/12 10:36:21;;;;;;;;;15.50;13.00;;;;;20.71;40.99;101803.19;5038342;28;46110;-59
2022/10/12 10:38:53;;;;;;;;;18.50;14.25;;;;;20.73;41.20;101811.00;5037221;28;45323;-58
2022/10/12 10:41:19;;;;;;;;;14.25;12.50;;;;;20.74;41.19;101807.44;5038388;28;45331;-58
2022/10/12 10:43:48;;;;;;;;;14.00;12.25;;;;;20.73;40.88;101811.84;5038460;28;45219;-58
2022/10/12 10:46:21;;;;;;;;;17.75;12.25;;;;;20.76;41.30;101810.91;5037879;28;45397;-59
2022/10/12 10:48:53;;;;;;;;;12.75;12.25;;;;;20.77;41.08;101804.72;5038114;28;45314;-58
2022/10/12 10:51:19;;;;;;;;;11.00;10.00;;;;;20.76;41.49;101803.03;5037113;28;45357;-59
2022/10/12 10:53:48;;;;;;;;;13.00;11.25;;;;;20.76;40.97;101800.38;5038545;28;45393;-58
2022/10/12 10:56:20;;;;;;;;;15.50;13.50;;;;;20.75;40.98;101796.88;5037803;28;46239;-59
2022/10/12 10:58:51;;;;;;;;;17.25;12.00;;;;;20.75;41.17;101793.41;5038107;28;45414;-59
2022/10/12 11:01:43;;;;;;;;;12.25;11.00;;;;;20.77;41.46;101802.09;5037875;28;45423;-59
2022/10/12 11:04:15;;;;;;;;;10.75;10.25;;;;;20.76;40.93;101801.22;5037519;28;45481;-58
2022/10/12 11:06:44;;;;;;;;;10.00;10.00;;;;;20.77;41.26;101802.09;5038111;28;46628;-58
2022/10/12 11:09:33;;;;;;;;;12.00;11.00;;;;;20.79;41.36;101805.50;5036672;28;45449;-58
2022/10/12 11:12:04;;;;;;;;;12.50;10.25;;;;;20.77;41.08;101795.03;5037377;28;45371;-59
2022/10/12 11:14:55;;;;;;;;;12.00;11.00;;;;;20.78;41.22;101803.81;5038074;28;45430;-58
2022/10/12 11:17:26;;;;;;;;;13.00;10.50;;;;;20.74;41.71;101795.16;5037754;28;45350;-58
2022/10/12 11:20:06;;;;;;;;;13.25;11.00;;;;;20.77;41.43;101797.66;5037714;28;45386;-58
2022/10/12 11:22:53;;;;;;;;;12.25;9.50;;;;;20.78;41.23;101793.28;5037598;28;45487;-58
2022/10/12 11:25:40;;;;;;;;;12.25;11.50;;;;;20.77;41.12;101786.28;5037973;28;45295;-59
2022/10/12 11:28:06;;;;;;;;;11.50;9.25;;;;;20.77;41.50;101787.13;5037349;28;45453;-59
2022/10/12 11:30:40;;;;;;;;;16.50;11.00;;;;;20.77;41.42;101784.50;5037536;28;45386;-59
2022/10/12 11:33:14;;;;;;;;;9.00;9.00;;;;;20.77;41.31;101781.88;5037361;28;45384;-59
2022/10/12 11:35:42;;;;;;;;;11.25;9.75;;;;;20.79;41.59;101787.06;5038082;28;45322;-60
2022/10/12 11:38:17;;;;;;;;;12.00;11.00;;;;;20.79;41.50;101781.78;5037058;28;45902;-58
2022/10/12 11:40:52;;;;;;;;;11.00;9.00;;;;;20.78;41.68;101778.31;5037772;28;45386;-59
2022/10/12 11:43:32;;;;;;;;;12.00;10.50;;;;;20.80;41.84;101775.59;5037430;28;45417;-61
2022/10/12 11:46:02;;;;;;;;;9.00;8.00;;;;;20.81;41.71;101772.06;5037371;28;45384;-62
2022/10/12 11:48:35;;;;;;;;;15.00;11.00;;;;;20.76;41.60;101760.88;5037167;28;46714;-58
2022/10/12 11:51:02;;;;;;;;;10.25;10.25;;;;;20.80;41.38;101765.06;5036963;28;45458;-59
2022/10/12 11:53:42;;;;;;;;;12.00;11.00;;;;;20.78;41.82;101756.41;5037379;28;45435;-58
2022/10/12 11:56:42;;;;;;;;;12.75;11.00;;;;;20.78;41.89;101756.41;5037174;28;45332;-60
2022/10/12 11:59:31;;;;;;;;;10.75;10.00;;;;;20.79;41.79;101758.94;5030941;28;46329;-58
2022/10/12 12:02:02;;;;;;;;;13.25;12.00;;;;;20.78;42.10;101749.34;5035063;28;45957;-59
2022/10/12 12:04:34;;;;;;;;;12.50;9.75;;;;;20.80;41.56;101754.53;5037081;28;45305;-60
2022/10/12 12:07:43;;;;;;;;;12.75;10.50;;;;;20.80;42.00;101749.25;5036986;28;45392;-61
2022/10/12 12:10:24;;;;;;;;;14.00;10.25;;;;;20.80;41.91;101749.25;5036556;28;47112;-59
2022/10/12 12:13:16;;;;;;;;;11.75;10.50;;;;;20.80;41.56;101739.59;5035615;28;45923;-58
2022/10/12 12:16:01;;;;;;;;;11.00;10.00;;;;;20.80;41.72;101733.44;5036955;28;45294;-60
2022/10/12 12:18:30;;;;;;;;;10.00;8.00;;;;;20.79;41.82;101732.59;5037029;28;45322;-58
2022/10/12 12:21:08;;;;;;;;;11.00;11.00;;;;;20.80;41.91;101720.28;5036421;28;46377;-60
2022/10/12 12:23:55;;;;;;;;;10.75;9.00;;;;;20.80;41.96;101718.50;5036552;28;45796;-62
2022/10/12 12:26:28;;;;;;;;;15.00;11.50;;;;;20.80;42.18;101722.91;5036778;28;45346;-61
2022/10/12 12:29:15;;;;;;;;;11.25;10.00;;;;;20.80;42.03;101707.09;5036709;28;45620;-63
2022/10/12 12:31:41;;;;;;;;;12.00;11.50;;;;;20.80;41.78;101707.09;5036637;28;46199;-58
2022/10/12 12:34:15;;;;;;;;;10.25;9.00;;;;;20.81;41.76;101704.41;5036193;28;45408;-58
2022/10/12 12:36:44;;;;;;;;;14.75;11.00;;;;;20.82;41.63;101707.91;5036719;28;45330;-59
2022/10/12 12:39:42;;;;;;;;;11.50;9.00;;;;;20.82;41.92;101715.81;5036261;28;45359;-61
2022/10/12 12:42:08;;;;;;;;;9.75;9.25;;;;;20.83;42.18;101713.13;5026758;28;46826;-62
2022/10/12 12:44:36;;;;;;;;;10.75;10.75;;;;;20.82;41.90;101710.53;5036550;28;45742;-63
2022/10/12 12:47:01;;;;;;;;;10.00;9.00;;;;;20.81;41.77;101704.41;5036309;28;45286;-64
2022/10/12 12:49:36;;;;;;;;;9.33;9.00;;;;;20.82;41.84;101707.91;5036729;28;45589;-63
2022/10/12 12:52:14;;;;;;;;;10.75;9.75;;;;;20.84;41.91;101706.06;5035873;28;46598;-61
2022/10/12 12:55:14;;;;;;;;;8.25;7.75;;;;;20.83;41.77;101706.97;5036184;28;45567;-58
2022/10/12 12:58:11;;;;;;;;;9.25;9.25;;;;;20.84;41.86;101708.69;5022925;28;45400;-59
2022/10/12 13:00:48;;;;;;;;;9.00;9.00;;;;;20.81;42.20;101691.25;5036438;28;46051;-58